createdAt,value
2019-05-29T00:01:30.348Z,1.1
2019-05-29T00:02:30.435Z,1.0
2019-05-29T00:04:22.105Z,1.5
2019-05-29T00:06:30.530Z,2.2
2019-05-29T00:07:30.538Z,2.0
2019-05-29T00:11:30.743Z,1.3
2019-05-29T00:12:30.781Z,1.2
2019-05-29T00:15:22.123Z,0.8
2019-05-29T00:16:30.911Z,0.8
2019-05-29T00:17:30.938Z,1.2
2019-05-29T00:21:31.011Z,0.0
2019-05-29T00:23:11.040Z,0.2
2019-05-29T00:24:11.062Z,0.9
2019-05-29T00:25:11.105Z,0.8
2019-05-29T00:26:22.191Z,0.4
2019-05-29T00:30:21.375Z,0.6
2019-05-29T00:31:31.379Z,0.8
2019-05-29T00:32:31.367Z,0.9
2019-05-29T00:35:21.463Z,0.8
2019-05-29T00:36:31.466Z,0.8
2019-05-29T00:37:32.739Z,0.8
2019-05-29T00:38:21.497Z,0.8
2019-05-29T00:39:21.524Z,0.2
2019-05-29T00:41:31.612Z,0.0
2019-05-29T00:42:31.635Z,0.0
2019-05-29T00:46:31.724Z,0.5
2019-05-29T00:47:31.728Z,0.9
2019-05-29T00:48:23.043Z,0.8
2019-05-29T00:51:31.869Z,0.6
2019-05-29T00:52:31.875Z,0.8
2019-05-29T00:56:32.040Z,0.8
2019-05-29T00:57:32.059Z,0.8
2019-05-29T01:01:32.146Z,0.0
2019-05-29T01:02:32.159Z,0.0
2019-05-29T01:06:32.389Z,0.4
2019-05-29T01:07:32.491Z,0.8
2019-05-29T01:08:12.606Z,0.6
2019-05-29T01:09:02.511Z,0.4
2019-05-29T01:10:03.852Z,0.8
2019-05-29T01:11:12.706Z,0.0
2019-05-29T01:12:12.855Z,0.0
2019-05-29T01:13:02.605Z,0.0
2019-05-29T01:14:02.615Z,0.0
2019-05-29T01:15:02.685Z,0.0
2019-05-29T01:16:13.321Z,0.0
2019-05-29T01:17:13.701Z,0.8
2019-05-29T01:18:02.708Z,0.8
2019-05-29T01:19:02.735Z,0.0
2019-05-29T01:20:02.771Z,0.0
2019-05-29T01:21:13.760Z,0.0
2019-05-29T01:22:13.792Z,0.0
2019-05-29T01:23:02.806Z,0.0
2019-05-29T01:24:02.814Z,0.0
2019-05-29T01:25:02.837Z,0.0
2019-05-29T01:26:12.841Z,0.0
2019-05-29T01:27:12.871Z,0.0
2019-05-29T01:28:02.906Z,0.0
2019-05-29T01:29:02.927Z,0.0
2019-05-29T01:30:02.969Z,0.0
2019-05-29T01:31:13.594Z,0.0
2019-05-29T01:32:13.422Z,0.0
2019-05-29T01:33:03.097Z,0.0
2019-05-29T01:34:03.100Z,0.0
2019-05-29T01:35:03.113Z,0.0
2019-05-29T01:36:13.836Z,0.0
2019-05-29T01:37:13.964Z,0.0
2019-05-29T01:38:03.153Z,0.0
2019-05-29T01:39:03.163Z,0.0
2019-05-29T01:40:18.653Z,0.6
2019-05-29T01:41:13.192Z,0.9
2019-05-29T01:42:13.340Z,0.9
2019-05-29T01:43:03.262Z,0.9
2019-05-29T01:44:03.288Z,0.3
2019-05-29T01:45:07.504Z,0.0
2019-05-29T01:46:13.354Z,0.0
2019-05-29T01:47:13.515Z,0.0
2019-05-29T01:48:03.458Z,0.6
2019-05-29T01:49:03.479Z,0.8
2019-05-29T01:50:03.492Z,0.8
2019-05-29T01:51:13.589Z,0.5
2019-05-29T01:52:13.657Z,1.1
2019-05-29T01:53:03.623Z,0.0
2019-05-29T01:54:03.701Z,0.0
2019-05-29T01:55:03.726Z,0.0
2019-05-29T01:56:13.758Z,0.0
2019-05-29T01:57:13.775Z,0.0
2019-05-29T01:58:03.783Z,0.0
2019-05-29T01:59:03.793Z,0.0
2019-05-29T02:00:03.905Z,0.0
2019-05-29T02:01:13.837Z,0.0
2019-05-29T02:02:13.857Z,0.0
2019-05-29T02:03:03.882Z,0.0
2019-05-29T02:04:04.155Z,0.0
2019-05-29T02:05:04.030Z,0.0
2019-05-29T02:06:14.057Z,0.8
2019-05-29T02:07:14.069Z,0.9
2019-05-29T02:08:04.189Z,0.4
2019-05-29T02:09:04.206Z,0.0
2019-05-29T02:10:04.344Z,0.0
2019-05-29T02:11:14.984Z,0.0
2019-05-29T02:12:14.427Z,0.0
2019-05-29T02:13:04.429Z,0.0
2019-05-29T02:14:04.468Z,0.0
2019-05-29T02:15:04.605Z,0.0
2019-05-29T02:16:14.478Z,0.0
2019-05-29T02:17:15.488Z,0.0
2019-05-29T02:18:04.629Z,0.0
2019-05-29T02:19:04.540Z,0.0
2019-05-29T02:20:04.551Z,0.2
2019-05-29T02:21:15.850Z,0.2
2019-05-29T02:22:14.638Z,0.0
2019-05-29T02:23:04.665Z,0.8
2019-05-29T02:24:04.728Z,0.9
2019-05-29T02:25:04.680Z,1.2
2019-05-29T02:26:15.812Z,0.2
2019-05-29T02:27:14.718Z,0.2
2019-05-29T02:28:04.800Z,0.0
2019-05-29T02:29:04.840Z,0.0
2019-05-29T02:30:04.872Z,0.0
2019-05-29T02:31:14.975Z,0.0
2019-05-29T02:32:15.002Z,0.0
2019-05-29T02:33:05.023Z,0.2
2019-05-29T02:34:07.306Z,0.0
2019-05-29T02:35:05.108Z,0.0
2019-05-29T02:36:15.151Z,0.0
2019-05-29T02:37:15.308Z,0.0
2019-05-29T02:38:05.158Z,0.0
2019-05-29T02:39:05.174Z,0.0
2019-05-29T02:40:05.181Z,0.0
2019-05-29T02:41:15.207Z,0.0
2019-05-29T02:42:15.216Z,0.0
2019-05-29T02:43:05.252Z,0.0
2019-05-29T02:44:05.242Z,0.4
2019-05-29T02:45:05.250Z,0.8
2019-05-29T02:46:15.288Z,0.6
2019-05-29T02:47:15.328Z,0.8
2019-05-29T02:48:05.398Z,1.0
2019-05-29T02:49:05.420Z,0.6
2019-05-29T02:50:05.429Z,0.8
2019-05-29T02:51:15.499Z,0.8
2019-05-29T02:52:15.613Z,0.8
2019-05-29T02:53:05.620Z,0.0
2019-05-29T02:54:05.763Z,0.6
2019-05-29T02:55:05.682Z,0.0
2019-05-29T02:56:15.683Z,0.4
2019-05-29T02:57:15.700Z,0.6
2019-05-29T02:58:05.709Z,0.0
2019-05-29T02:59:05.758Z,0.0
2019-05-29T03:00:05.753Z,0.0
2019-05-29T03:01:15.767Z,0.0
2019-05-29T03:02:15.784Z,0.0
2019-05-29T03:03:05.823Z,0.0
2019-05-29T03:04:05.837Z,0.0
2019-05-29T03:05:05.844Z,0.0
2019-05-29T03:06:15.854Z,0.0
2019-05-29T03:07:15.924Z,0.0
2019-05-29T03:08:05.970Z,0.0
2019-05-29T03:09:05.975Z,0.0
2019-05-29T03:10:05.994Z,0.0
2019-05-29T03:11:15.997Z,0.0
2019-05-29T03:12:16.014Z,0.2
2019-05-29T03:13:06.052Z,0.8
2019-05-29T03:14:06.097Z,0.8
2019-05-29T03:15:06.083Z,0.8
2019-05-29T03:18:06.143Z,0.0
2019-05-29T03:19:06.165Z,0.0
2019-05-29T03:20:16.247Z,0.0
2019-05-29T03:21:36.190Z,0.0
2019-05-29T03:22:16.200Z,0.0
2019-05-29T03:23:16.295Z,0.0
2019-05-29T03:24:16.270Z,0.0
2019-05-29T03:25:16.289Z,0.0
2019-05-29T03:26:37.912Z,0.6
2019-05-29T03:27:16.412Z,1.0
2019-05-29T03:28:16.504Z,0.8
2019-05-29T03:29:16.539Z,0.8
2019-05-29T03:30:16.587Z,0.8
2019-05-29T03:31:42.699Z,0.4
2019-05-29T03:32:16.675Z,0.0
2019-05-29T03:33:16.696Z,0.0
2019-05-29T03:34:16.851Z,0.0
2019-05-29T03:35:16.716Z,0.0
2019-05-29T03:36:43.406Z,0.0
2019-05-29T03:37:16.800Z,0.2
2019-05-29T03:38:16.802Z,0.4
2019-05-29T03:39:16.799Z,0.0
2019-05-29T03:40:16.856Z,0.0
2019-05-29T03:41:38.373Z,0.2
2019-05-29T03:42:16.834Z,0.8
2019-05-29T03:43:16.865Z,0.8
2019-05-29T03:44:16.874Z,0.8
2019-05-29T03:45:16.907Z,0.8
2019-05-29T03:47:06.921Z,0.9
2019-05-29T03:48:07.015Z,0.8
2019-05-29T03:49:07.042Z,0.0
2019-05-29T03:50:07.066Z,0.0
2019-05-29T03:52:07.110Z,0.4
2019-05-29T03:53:07.110Z,0.9
2019-05-29T03:54:07.131Z,0.8
2019-05-29T03:55:07.160Z,0.9
2019-05-29T03:57:07.246Z,0.8
2019-05-29T03:58:07.270Z,0.8
2019-05-29T03:59:07.268Z,0.0
2019-05-29T04:00:07.282Z,0.6
2019-05-29T04:02:07.395Z,0.6
2019-05-29T04:03:07.359Z,0.6
2019-05-29T04:04:07.370Z,0.8
2019-05-29T04:05:07.505Z,0.9
2019-05-29T04:14:07.692Z,0.8
2019-05-29T04:15:07.799Z,0.9
2019-05-29T04:22:07.973Z,0.4
2019-05-29T04:23:38.337Z,0.8
2019-05-29T04:24:18.010Z,1.0
2019-05-29T04:25:40.358Z,1.1
2019-05-29T04:26:38.170Z,1.0
2019-05-29T04:27:18.039Z,0.9
2019-05-29T04:28:08.061Z,0.8
2019-05-29T04:29:08.134Z,0.6
2019-05-29T04:30:08.124Z,0.7
2019-05-29T04:32:08.167Z,1.0
2019-05-29T04:33:09.334Z,0.8
2019-05-29T04:34:09.488Z,0.8
2019-05-29T04:38:40.284Z,0.2
2019-05-29T04:39:18.594Z,0.6
2019-05-29T04:41:29.229Z,0.6
2019-05-29T04:42:08.654Z,0.6
2019-05-29T04:43:08.668Z,0.6
2019-05-29T04:44:08.694Z,0.0
2019-05-29T04:45:08.707Z,0.0
2019-05-29T04:47:18.746Z,0.0
2019-05-29T04:48:18.763Z,0.6
2019-05-29T04:49:20.221Z,0.0
2019-05-29T04:50:40.552Z,0.0
2019-05-29T04:51:39.850Z,0.0
2019-05-29T04:52:18.982Z,0.0
2019-05-29T04:53:18.912Z,0.0
2019-05-29T04:54:18.951Z,0.0
2019-05-29T04:55:39.059Z,0.0
2019-05-29T04:56:39.159Z,0.0
2019-05-29T04:57:19.024Z,0.0
2019-05-29T04:58:19.124Z,0.0
2019-05-29T04:59:19.136Z,0.0
2019-05-29T05:02:19.202Z,0.0
2019-05-29T05:03:09.204Z,0.0
2019-05-29T05:04:09.336Z,0.0
2019-05-29T05:05:09.259Z,0.2
2019-05-29T05:06:19.640Z,0.0
2019-05-29T05:07:09.276Z,0.0
2019-05-29T05:08:09.297Z,0.0
2019-05-29T05:09:09.372Z,0.0
2019-05-29T05:10:09.456Z,0.2
2019-05-29T05:11:19.394Z,0.8
2019-05-29T05:12:09.407Z,0.2
2019-05-29T05:13:09.407Z,0.2
2019-05-29T05:14:09.504Z,0.8
2019-05-29T05:15:10.807Z,0.0
2019-05-29T05:16:19.532Z,0.0
2019-05-29T05:17:23.261Z,0.0
2019-05-29T05:18:09.598Z,0.0
2019-05-29T05:19:09.630Z,0.0
2019-05-29T05:20:09.646Z,0.0
2019-05-29T05:21:19.701Z,0.0
2019-05-29T05:22:09.709Z,0.0
2019-05-29T05:23:09.858Z,0.0
2019-05-29T05:24:09.742Z,0.0
2019-05-29T05:25:09.750Z,0.0
2019-05-29T05:26:19.777Z,0.0
2019-05-29T05:27:09.777Z,0.0
2019-05-29T05:28:09.797Z,0.0
2019-05-29T05:29:09.831Z,0.0
2019-05-29T05:30:09.880Z,0.0
2019-05-29T05:31:19.903Z,0.0
2019-05-29T05:32:09.922Z,0.0
2019-05-29T05:33:10.055Z,0.0
2019-05-29T05:34:10.244Z,0.0
2019-05-29T05:35:13.491Z,0.0
2019-05-29T05:36:20.305Z,0.0
2019-05-29T05:37:10.330Z,0.0
2019-05-29T05:38:10.350Z,0.0
2019-05-29T05:39:10.371Z,0.0
2019-05-29T05:40:10.383Z,0.0
2019-05-29T05:41:20.551Z,0.0
2019-05-29T05:42:10.612Z,0.0
2019-05-29T05:43:23.049Z,0.0
2019-05-29T05:44:10.587Z,0.0
2019-05-29T05:45:10.608Z,0.0
2019-05-29T05:46:20.747Z,0.0
2019-05-29T05:47:10.725Z,0.0
2019-05-29T05:48:10.734Z,0.0
2019-05-29T05:49:10.816Z,0.0
2019-05-29T05:50:10.893Z,0.0
2019-05-29T05:51:20.928Z,0.0
2019-05-29T05:52:10.945Z,0.0
2019-05-29T05:53:11.003Z,0.0
2019-05-29T05:54:11.110Z,0.0
2019-05-29T05:55:11.148Z,0.0
2019-05-29T05:56:21.172Z,0.0
2019-05-29T05:57:11.207Z,0.0
2019-05-29T05:58:11.497Z,0.0
2019-05-29T05:59:11.370Z,0.0
2019-05-29T06:00:11.370Z,0.7
2019-05-29T06:01:21.394Z,0.9
2019-05-29T06:02:21.399Z,0.7
2019-05-29T06:03:21.415Z,0.5
2019-05-29T06:04:21.413Z,0.8
2019-05-29T06:05:32.037Z,0.9
2019-05-29T06:06:31.942Z,0.8
2019-05-29T06:07:21.478Z,0.4
2019-05-29T06:08:11.494Z,0.0
2019-05-29T06:09:12.755Z,0.0
2019-05-29T06:10:11.605Z,0.0
2019-05-29T06:11:21.694Z,0.2
2019-05-29T06:12:11.701Z,0.8
2019-05-29T06:13:11.716Z,0.4
2019-05-29T06:14:11.921Z,0.8
2019-05-29T06:15:11.792Z,0.0
2019-05-29T06:16:21.807Z,0.0
2019-05-29T06:17:22.035Z,0.0
2019-05-29T06:18:22.060Z,0.2
2019-05-29T06:19:21.938Z,0.6
2019-05-29T06:22:21.951Z,0.4
2019-05-29T06:23:11.954Z,0.8
2019-05-29T06:34:12.112Z,0.6
2019-05-29T06:41:22.497Z,0.6
2019-05-29T06:42:22.501Z,0.4
2019-05-29T06:43:22.538Z,0.8
2019-05-29T06:44:22.557Z,0.8
2019-05-29T06:47:22.606Z,0.2
2019-05-29T06:48:40.357Z,0.5
2019-05-29T06:49:22.644Z,0.4
2019-05-29T06:50:43.406Z,0.0
2019-05-29T06:51:43.399Z,0.4
2019-05-29T06:52:43.683Z,0.0
2019-05-29T06:53:43.891Z,0.0
2019-05-29T06:54:44.044Z,0.0
2019-05-29T06:56:52.903Z,0.6
2019-05-29T07:01:23.179Z,0.8
2019-05-29T07:04:53.197Z,1.1
2019-05-29T07:06:23.208Z,0.8
2019-05-29T07:11:23.283Z,0.8
2019-05-29T07:12:53.335Z,0.0
2019-05-29T07:16:23.498Z,0.0
2019-05-29T07:21:23.627Z,0.0
2019-05-29T07:24:53.695Z,0.0
2019-05-29T07:26:13.709Z,0.0
2019-05-29T07:31:13.856Z,0.0
2019-05-29T07:32:57.909Z,0.0
2019-05-29T07:33:53.914Z,0.0
2019-05-29T07:35:02.626Z,0.0
2019-05-29T07:36:13.995Z,0.0
2019-05-29T07:36:53.971Z,0.0
2019-05-29T07:41:24.413Z,0.0
2019-05-29T07:45:24.477Z,0.0
2019-05-29T07:46:24.531Z,0.0
2019-05-29T07:50:24.666Z,0.0
2019-05-29T07:51:24.665Z,0.0
2019-05-29T07:54:14.784Z,0.0
2019-05-29T07:57:14.874Z,0.8
2019-05-29T07:58:14.898Z,0.0
2019-05-29T07:59:15.124Z,0.0
2019-05-29T08:02:15.159Z,0.0
2019-05-29T08:03:15.279Z,0.0
2019-05-29T08:04:15.294Z,0.4
2019-05-29T08:07:15.340Z,0.8
2019-05-29T08:08:15.369Z,0.8
2019-05-29T08:09:15.434Z,0.0
2019-05-29T08:12:15.414Z,0.4
2019-05-29T08:13:15.443Z,0.0
2019-05-29T08:14:15.529Z,0.0
2019-05-29T08:17:15.601Z,0.8
2019-05-29T08:18:15.610Z,0.2
2019-05-29T08:19:15.703Z,0.0
2019-05-29T08:22:30.285Z,0.4
2019-05-29T08:23:15.787Z,0.2
2019-05-29T08:24:15.792Z,0.0
2019-05-29T08:27:15.935Z,0.0
2019-05-29T08:28:15.945Z,0.0
2019-05-29T08:29:15.986Z,0.0
2019-05-29T08:32:16.013Z,0.0
2019-05-29T08:33:16.050Z,0.0
2019-05-29T08:34:16.130Z,0.0
2019-05-29T08:40:26.384Z,0.0
2019-05-29T08:41:26.390Z,0.0
2019-05-29T08:43:07.574Z,0.0
2019-05-29T08:45:26.486Z,0.0
2019-05-29T08:46:26.504Z,0.0
2019-05-29T08:50:26.623Z,0.0
2019-05-29T08:51:26.628Z,0.0
2019-05-29T08:54:22.838Z,0.0
2019-05-29T08:55:26.691Z,0.0
2019-05-29T08:56:26.747Z,0.0
2019-05-29T09:00:26.843Z,0.2
2019-05-29T09:01:26.864Z,0.2
2019-05-29T09:05:28.595Z,0.8
2019-05-29T09:06:27.320Z,0.2
2019-05-29T09:10:27.380Z,0.0
2019-05-29T09:11:27.385Z,0.0
2019-05-29T09:15:27.477Z,0.0
2019-05-29T09:16:28.767Z,0.2
2019-05-29T09:20:43.437Z,0.8
2019-05-29T09:21:27.616Z,0.2
2019-05-29T09:25:27.809Z,0.4
2019-05-29T09:26:27.831Z,0.8
2019-05-29T09:30:27.877Z,0.8
2019-05-29T09:31:27.899Z,0.8
2019-05-29T09:35:27.972Z,0.6
2019-05-29T09:36:27.986Z,0.4
2019-05-29T09:40:28.192Z,0.0
2019-05-29T09:41:28.205Z,0.0
2019-05-29T09:45:28.301Z,0.0
2019-05-29T09:47:18.943Z,0.8
2019-05-29T09:48:21.624Z,0.0
2019-05-29T09:49:18.452Z,0.0
2019-05-29T09:50:49.864Z,0.0
2019-05-29T09:52:18.478Z,0.0
2019-05-29T09:53:18.480Z,0.0
2019-05-29T09:54:18.566Z,0.0
2019-05-29T09:57:18.612Z,0.0
2019-05-29T09:58:18.636Z,0.0
2019-05-29T09:59:18.684Z,0.0
2019-05-29T10:03:18.826Z,0.0
2019-05-29T10:04:19.098Z,0.0
2019-05-29T10:07:18.992Z,0.0
2019-05-29T10:08:18.991Z,0.0
2019-05-29T10:09:19.021Z,0.0
2019-05-29T10:12:19.120Z,0.0
2019-05-29T10:13:19.147Z,0.4
2019-05-29T10:14:19.175Z,0.8
2019-05-29T10:17:19.249Z,0.0
2019-05-29T10:18:31.741Z,0.0
2019-05-29T10:19:19.393Z,0.0
2019-05-29T10:21:39.785Z,0.0
2019-05-29T10:22:19.426Z,0.0
2019-05-29T10:23:20.063Z,0.0
2019-05-29T10:24:19.662Z,0.0
2019-05-29T10:26:29.559Z,0.6
2019-05-29T10:27:19.594Z,0.4
2019-05-29T10:28:19.604Z,0.6
2019-05-29T10:29:19.611Z,0.8
2019-05-29T10:31:29.716Z,0.2
2019-05-29T10:32:19.778Z,0.4
2019-05-29T10:33:19.775Z,0.6
2019-05-29T10:34:19.787Z,0.2
2019-05-29T10:36:30.519Z,0.0
2019-05-29T10:40:30.077Z,0.6
2019-05-29T10:41:29.937Z,0.0
2019-05-29T10:45:30.057Z,0.0
2019-05-29T10:46:30.079Z,0.0
2019-05-29T10:50:30.170Z,0.0
2019-05-29T10:51:30.178Z,0.0
2019-05-29T10:55:30.548Z,0.0
2019-05-29T10:56:30.600Z,0.0
2019-05-29T11:00:30.759Z,0.0
2019-05-29T11:01:30.905Z,0.0
2019-05-29T11:05:30.909Z,0.0
2019-05-29T11:06:30.936Z,0.0
2019-05-29T11:10:30.962Z,0.0
2019-05-29T11:11:31.051Z,0.0
2019-05-29T11:12:21.009Z,0.0
2019-05-29T11:13:21.039Z,0.0
2019-05-29T11:14:21.045Z,0.6
2019-05-29T11:16:41.339Z,0.8
2019-05-29T11:17:51.455Z,0.6
2019-05-29T11:18:51.254Z,0.6
2019-05-29T11:20:11.336Z,0.0
2019-05-29T11:22:16.525Z,0.8
2019-05-29T11:23:01.260Z,0.8
2019-05-29T11:24:01.411Z,0.2
2019-05-29T11:25:24.942Z,0.0
2019-05-29T11:26:21.440Z,0.8
2019-05-29T11:27:01.474Z,0.7
2019-05-29T11:28:01.468Z,0.4
2019-05-29T11:29:01.572Z,0.2
2019-05-29T11:30:21.526Z,0.4
2019-05-29T11:31:22.755Z,0.8
2019-05-29T11:32:01.561Z,0.8
2019-05-29T11:33:01.583Z,0.8
2019-05-29T11:34:01.584Z,0.8
2019-05-29T11:35:21.688Z,0.6
2019-05-29T11:36:21.707Z,0.6
2019-05-29T11:37:02.460Z,0.4
2019-05-29T11:38:02.932Z,0.6
2019-05-29T11:39:05.663Z,0.6
2019-05-29T11:40:21.865Z,0.4
2019-05-29T11:41:26.145Z,0.8
2019-05-29T11:42:03.125Z,0.6
2019-05-29T11:43:03.175Z,0.6
2019-05-29T11:44:03.189Z,0.8
2019-05-29T11:45:22.066Z,1.0
2019-05-29T11:46:22.050Z,0.6
2019-05-29T11:48:04.420Z,0.7
2019-05-29T11:49:03.482Z,0.8
2019-05-29T11:50:22.112Z,0.8
2019-05-29T11:51:22.166Z,0.6
2019-05-29T11:52:21.326Z,0.3
2019-05-29T11:53:03.111Z,0.2
2019-05-29T11:54:02.485Z,0.2
2019-05-29T11:55:22.345Z,0.6
2019-05-29T11:56:22.273Z,0.4
2019-05-29T12:00:32.346Z,0.0
2019-05-29T12:01:48.940Z,0.0
2019-05-29T12:05:32.666Z,0.5
2019-05-29T12:06:32.680Z,0.8
2019-05-29T12:10:32.724Z,0.2
2019-05-29T12:11:22.734Z,0.2
2019-05-29T12:15:32.884Z,0.0
2019-05-29T12:20:33.043Z,0.0
2019-05-29T12:25:33.349Z,0.7
2019-05-29T12:26:23.479Z,0.6
2019-05-29T12:27:23.329Z,0.0
2019-05-29T12:28:23.350Z,0.0
2019-05-29T12:29:23.370Z,0.4
2019-05-29T12:35:03.542Z,0.4
2019-05-29T12:35:53.856Z,0.9
2019-05-29T12:37:03.918Z,0.0
2019-05-29T12:38:03.602Z,0.0
2019-05-29T12:39:04.156Z,0.0
2019-05-29T12:40:23.684Z,0.4
2019-05-29T12:41:03.881Z,1.0
2019-05-29T12:42:03.836Z,0.0
2019-05-29T12:43:03.847Z,0.0
2019-05-29T12:44:03.862Z,0.0
2019-05-29T12:45:23.756Z,0.0
2019-05-29T12:46:04.046Z,0.0
2019-05-29T12:47:04.305Z,0.0
2019-05-29T12:48:10.315Z,0.0
2019-05-29T12:49:03.855Z,0.0
2019-05-29T12:50:23.833Z,0.2
2019-05-29T12:51:04.177Z,0.0
2019-05-29T12:52:07.384Z,0.0
2019-05-29T12:53:04.036Z,0.0
2019-05-29T12:54:05.131Z,0.2
2019-05-29T12:55:23.976Z,0.0
2019-05-29T12:56:04.559Z,0.0
2019-05-29T12:57:04.292Z,0.6
2019-05-29T12:58:04.486Z,0.2
2019-05-29T12:59:04.616Z,0.0
2019-05-29T13:00:24.173Z,0.0
2019-05-29T13:01:05.118Z,0.0
2019-05-29T13:05:34.297Z,0.4
2019-05-29T13:10:35.712Z,0.8
2019-05-29T13:11:25.545Z,0.6
2019-05-29T13:12:24.428Z,0.6
2019-05-29T13:13:24.531Z,0.8
2019-05-29T13:14:24.541Z,0.7
2019-05-29T13:20:18.848Z,0.2
2019-05-29T13:21:05.180Z,0.9
2019-05-29T13:24:09.798Z,0.8
2019-05-29T13:25:24.962Z,0.4
2019-05-29T13:26:05.669Z,0.0
2019-05-29T13:27:06.030Z,0.0
2019-05-29T13:28:06.069Z,0.7
2019-05-29T13:29:06.032Z,0.8
2019-05-29T13:30:25.109Z,0.2
2019-05-29T13:31:25.107Z,0.0
2019-05-29T13:32:25.136Z,0.0
2019-05-29T13:33:25.151Z,0.0
2019-05-29T13:34:25.200Z,0.8
2019-05-29T13:40:07.978Z,0.0
2019-05-29T13:41:06.598Z,0.0
2019-05-29T13:42:09.636Z,0.2
2019-05-29T13:44:06.915Z,0.8
2019-05-29T13:45:25.797Z,0.0
2019-05-29T13:46:05.843Z,0.0
2019-05-29T13:47:06.299Z,0.5
2019-05-29T13:48:07.469Z,0.6
2019-05-29T13:49:07.133Z,0.9
2019-05-29T13:50:26.443Z,0.0
2019-05-29T13:55:36.607Z,0.2
2019-05-29T13:57:44.152Z,0.8
2019-05-29T13:58:44.164Z,0.4
2019-05-29T14:00:32.007Z,0.2
2019-05-29T14:01:14.204Z,0.2
2019-05-29T14:05:24.279Z,0.0
2019-05-29T14:06:24.314Z,0.0
2019-05-29T14:07:24.316Z,0.6
2019-05-29T14:08:24.328Z,0.6
2019-05-29T14:09:24.410Z,0.0
2019-05-29T14:10:54.426Z,0.0
2019-05-29T14:11:34.439Z,0.6
2019-05-29T14:12:34.445Z,0.4
2019-05-29T14:13:34.451Z,0.0
2019-05-29T14:15:04.553Z,0.0
2019-05-29T14:16:14.524Z,0.0
2019-05-29T14:26:34.780Z,0.0
2019-05-29T14:27:34.852Z,0.0
2019-05-29T14:28:34.817Z,0.0
2019-05-29T14:30:05.704Z,0.6
2019-05-29T14:31:14.879Z,0.2
2019-05-29T14:32:56.198Z,0.0
2019-05-29T14:41:35.099Z,0.0
2019-05-29T14:42:35.154Z,0.0
2019-05-29T14:46:35.228Z,0.0
2019-05-29T14:47:35.263Z,0.0
2019-05-29T14:48:35.269Z,0.0
2019-05-29T14:50:06.369Z,0.0
2019-05-29T14:51:15.334Z,0.0
2019-05-29T15:00:45.580Z,0.0
2019-05-29T15:06:35.619Z,0.0
2019-05-29T15:07:35.659Z,0.0
2019-05-29T15:08:35.784Z,0.0
2019-05-29T15:10:11.916Z,0.0
2019-05-29T15:11:15.825Z,0.0
2019-05-29T15:17:27.348Z,0.0
2019-05-29T15:21:36.222Z,0.0
2019-05-29T15:22:36.229Z,0.0
2019-05-29T15:23:36.248Z,0.0
2019-05-29T15:25:14.264Z,0.9
2019-05-29T15:26:07.192Z,0.8
2019-05-29T15:26:46.281Z,0.8
2019-05-29T15:27:46.320Z,0.6
2019-05-29T15:28:36.333Z,0.2
2019-05-29T15:30:06.403Z,0.0
2019-05-29T15:31:06.425Z,0.2
2019-05-29T15:31:46.422Z,0.6
2019-05-29T15:32:46.458Z,0.4
2019-05-29T15:33:46.444Z,0.2
2019-05-29T15:35:19.373Z,0.0
2019-05-29T15:36:16.921Z,0.0
2019-05-29T15:41:36.612Z,0.0
2019-05-29T15:46:36.700Z,0.0
2019-05-29T15:47:36.710Z,0.0
2019-05-29T15:48:36.730Z,0.0
2019-05-29T15:50:06.915Z,0.9
2019-05-29T15:50:47.950Z,0.2
2019-05-29T15:51:36.803Z,0.2
2019-05-29T15:52:36.810Z,0.0
2019-05-29T15:53:36.867Z,0.0
2019-05-29T15:55:21.045Z,0.4
2019-05-29T15:55:46.893Z,0.0
2019-05-29T15:56:46.911Z,0.6
2019-05-29T15:57:46.946Z,0.2
2019-05-29T15:58:46.963Z,0.0
2019-05-29T16:00:07.107Z,0.8
2019-05-29T16:00:46.987Z,0.7
2019-05-29T16:01:47.905Z,0.4
2019-05-29T16:02:48.781Z,0.2
2019-05-29T16:03:37.116Z,0.0
2019-05-29T16:05:08.589Z,0.0
2019-05-29T16:05:47.169Z,0.0
2019-05-29T16:06:47.194Z,0.0
2019-05-29T16:07:37.196Z,0.0
2019-05-29T16:08:37.207Z,0.0
2019-05-29T16:10:08.183Z,0.4
2019-05-29T16:10:47.234Z,0.2
2019-05-29T16:11:47.243Z,0.0
2019-05-29T16:12:38.552Z,0.0
2019-05-29T16:13:37.299Z,0.0
2019-05-29T16:15:08.920Z,0.8
2019-05-29T16:15:47.395Z,0.6
2019-05-29T16:16:47.403Z,0.7
2019-05-29T16:17:47.414Z,0.4
2019-05-29T16:18:47.422Z,0.7
2019-05-29T16:20:18.538Z,0.8
2019-05-29T16:24:47.549Z,0.4
2019-05-29T16:25:40.352Z,0.0
2019-05-29T16:26:37.584Z,0.4
2019-05-29T16:27:37.650Z,0.0
2019-05-29T16:28:37.665Z,0.0
2019-05-29T16:30:07.623Z,0.0
2019-05-29T16:30:47.687Z,0.0
2019-05-29T16:31:47.690Z,0.0
2019-05-29T16:32:47.706Z,0.0
2019-05-29T16:33:47.799Z,0.0
2019-05-29T16:35:07.732Z,0.0
2019-05-29T16:35:47.754Z,0.0
2019-05-29T16:36:47.745Z,0.0
2019-05-29T16:37:47.759Z,0.0
2019-05-29T16:38:37.781Z,0.6
2019-05-29T16:40:07.839Z,0.0
2019-05-29T16:40:47.854Z,0.0
2019-05-29T16:41:47.904Z,0.2
2019-05-29T16:42:47.916Z,0.6
2019-05-29T16:43:37.927Z,0.6
2019-05-29T16:45:09.109Z,0.0
2019-05-29T16:45:47.984Z,0.0
2019-05-29T16:46:47.991Z,0.0
2019-05-29T16:47:48.031Z,0.6
2019-05-29T16:48:48.115Z,0.2
2019-05-29T16:50:19.353Z,0.0
2019-05-29T16:51:18.785Z,0.0
2019-05-29T16:52:18.836Z,0.2
2019-05-29T16:53:18.892Z,0.8
2019-05-29T16:54:48.206Z,0.8
2019-05-29T16:56:38.213Z,0.2
2019-05-29T16:57:38.237Z,0.0
2019-05-29T16:58:38.243Z,0.5
2019-05-29T17:00:08.302Z,0.4
2019-05-29T17:00:48.302Z,0.0
2019-05-29T17:01:48.375Z,1.0
2019-05-29T17:02:48.362Z,0.6
2019-05-29T17:03:48.366Z,0.2
2019-05-29T17:05:08.393Z,0.0
2019-05-29T17:05:48.404Z,0.2
2019-05-29T17:06:49.136Z,0.0
2019-05-29T17:07:48.420Z,0.0
2019-05-29T17:08:48.449Z,0.0
2019-05-29T17:10:18.469Z,0.0
2019-05-29T17:11:18.576Z,0.0
2019-05-29T17:12:18.489Z,0.0
2019-05-29T17:13:18.699Z,0.0
2019-05-29T17:14:48.520Z,0.0
2019-05-29T17:16:38.551Z,0.0
2019-05-29T17:17:38.634Z,0.6
2019-05-29T17:18:38.570Z,0.4
2019-05-29T17:20:08.615Z,0.0
2019-05-29T17:20:48.630Z,0.0
2019-05-29T17:21:48.648Z,0.0
2019-05-29T17:22:48.659Z,0.0
2019-05-29T17:23:38.655Z,0.0
2019-05-29T17:25:48.747Z,0.0
2019-05-29T17:26:48.694Z,0.0
2019-05-29T17:27:48.706Z,0.0
2019-05-29T17:28:48.867Z,0.0
2019-05-29T17:30:08.747Z,0.0
2019-05-29T17:35:18.988Z,0.0
2019-05-29T17:36:08.869Z,0.0
2019-05-29T17:36:48.875Z,0.0
2019-05-29T17:37:48.904Z,0.0
2019-05-29T17:38:48.942Z,0.0
2019-05-29T17:40:09.090Z,0.0
2019-05-29T17:45:21.165Z,0.0
2019-05-29T17:46:09.107Z,0.0
2019-05-29T17:46:49.122Z,0.0
2019-05-29T17:47:49.133Z,0.0
2019-05-29T17:48:49.144Z,0.0
2019-05-29T17:50:09.237Z,0.2
2019-05-29T17:55:21.594Z,0.0
2019-05-29T17:56:09.268Z,0.4
2019-05-29T17:56:49.365Z,0.4
2019-05-29T17:57:49.424Z,0.0
2019-05-29T17:58:49.347Z,0.0
2019-05-29T18:00:09.412Z,0.0
2019-05-29T18:02:51.744Z,0.0
2019-05-29T18:03:49.464Z,0.0
2019-05-29T18:05:09.497Z,0.0
2019-05-29T18:05:49.498Z,0.0
2019-05-29T18:06:49.534Z,0.0
2019-05-29T18:07:49.551Z,0.0
2019-05-29T18:08:49.586Z,0.0
2019-05-29T18:10:09.606Z,0.0
2019-05-29T18:15:19.755Z,0.0
2019-05-29T18:16:09.725Z,0.0
2019-05-29T18:16:49.756Z,0.0
2019-05-29T18:17:49.765Z,0.0
2019-05-29T18:18:49.826Z,0.0
2019-05-29T18:20:19.841Z,0.0
2019-05-29T18:21:19.860Z,0.0
2019-05-29T18:22:19.899Z,0.0
2019-05-29T18:23:19.991Z,0.0
2019-05-29T18:24:49.951Z,0.0
2019-05-29T18:30:10.148Z,0.0
2019-05-29T18:30:50.155Z,0.0
2019-05-29T18:31:50.164Z,0.0
2019-05-29T18:32:50.216Z,0.0
2019-05-29T18:33:50.285Z,0.0
2019-05-29T18:35:20.703Z,0.0
2019-05-29T18:36:20.989Z,0.0
2019-05-29T18:37:20.266Z,0.0
2019-05-29T18:38:20.479Z,0.0
2019-05-29T18:39:50.393Z,0.0
2019-05-29T18:48:40.545Z,0.0
2019-05-29T18:49:50.551Z,0.0
2019-05-29T18:50:50.625Z,0.0
2019-05-29T18:51:50.586Z,0.0
2019-05-29T18:53:20.753Z,0.0
2019-05-29T18:54:21.608Z,0.0
2019-05-29T18:55:20.831Z,0.0
2019-05-29T18:56:21.653Z,0.0
2019-05-29T18:57:50.702Z,0.0
2019-05-29T19:03:40.892Z,0.0
2019-05-29T19:04:50.913Z,0.0
2019-05-29T19:05:50.998Z,0.0
2019-05-29T19:07:21.499Z,0.0
2019-05-29T19:08:21.601Z,0.0
2019-05-29T19:09:21.642Z,0.0
2019-05-29T19:10:21.590Z,0.0
2019-05-29T19:11:52.412Z,0.0
2019-05-29T19:16:51.195Z,0.0
2019-05-29T19:21:51.256Z,0.0
2019-05-29T19:26:51.456Z,0.0
2019-05-29T19:31:51.563Z,0.0
2019-05-29T19:34:31.686Z,0.0
2019-05-29T19:36:51.684Z,0.0
2019-05-29T19:41:51.847Z,0.4
2019-05-29T19:45:34.675Z,0.0
2019-05-29T19:46:53.849Z,0.0
2019-05-29T19:51:52.013Z,0.0
2019-05-29T19:52:42.024Z,0.0
2019-05-29T19:53:42.031Z,0.0
2019-05-29T19:54:42.092Z,0.0
2019-05-29T19:55:42.235Z,0.0
2019-05-29T19:57:55.363Z,0.0
2019-05-29T20:02:22.235Z,0.0
2019-05-29T20:03:22.246Z,0.0
2019-05-29T20:04:22.268Z,0.0
2019-05-29T20:05:22.305Z,0.0
2019-05-29T20:06:42.339Z,0.0
2019-05-29T20:07:33.666Z,0.2
2019-05-29T20:11:52.395Z,0.2
2019-05-29T20:12:42.414Z,0.0
2019-05-29T20:13:42.423Z,0.0
2019-05-29T20:14:42.440Z,0.0
2019-05-29T20:15:42.446Z,0.0
2019-05-29T20:17:42.498Z,0.0
2019-05-29T20:18:43.771Z,0.0
2019-05-29T20:19:42.532Z,0.0
2019-05-29T20:20:42.598Z,0.0
2019-05-29T20:22:42.617Z,0.0
2019-05-29T20:23:42.632Z,0.0
2019-05-29T20:24:42.634Z,0.0
2019-05-29T20:25:42.731Z,0.0
2019-05-29T20:28:05.403Z,0.0
2019-05-29T20:32:22.885Z,0.0
2019-05-29T20:33:22.923Z,0.0
2019-05-29T20:34:22.943Z,0.2
2019-05-29T20:35:22.945Z,0.8
2019-05-29T20:36:42.972Z,0.8
2019-05-29T20:41:53.061Z,0.8
2019-05-29T20:42:43.068Z,0.6
2019-05-29T20:43:43.097Z,0.8
2019-05-29T20:44:43.198Z,0.8
2019-05-29T20:45:43.143Z,0.8
2019-05-29T20:47:03.872Z,0.9
2019-05-29T20:47:43.174Z,0.7
2019-05-29T20:48:43.314Z,0.8
2019-05-29T20:49:46.623Z,0.8